Terminal Aerodrome Forecast
Issued by NWS

Home | Current Version | Previous Version | Graphics & Text | Print | Product List | Glossary On
Versions: 1 2 3 4 5 6 7 8 9 10 11 12 13 14 15 16
853
FTUS43 KUNR 231720
TAFGCC
TAF
KGCC 231720Z 2318/2418 20006KT P6SM SKC
     FM232300 24009KT P6SM BKN150
     FM240500 31010KT P6SM -SHRA OVC050
     FM240900 33014KT P6SM OVC012
     FM241600 32009KT P6SM BKN100=

USA.gov is the U.S. government's official web portal to all federal, state and local government web resources and services.